Time;durP1;ratioP1;P1;durP2;ratioP2;P2;SDS_P1;SDS_P2;PMS_P1;PMS_P2;Temp;Humidity;BMP_temperature;BMP_pressure;BME280_temperature;BME280_humidity;BME280_pressure;Samples;Min_cycle;Max_cycle;Signal;HPM_P1;HPM_P2
2021/03/19 00:00:47;;;;;;;19.25;13.95;;;;;;;0.88;65.25;94326.44;4230643;28;20051;-71
2021/03/19 00:02:51;;;;;;;20.42;14.38;;;;;;;0.84;65.10;94331.94;4226489;28;20054;-70
2021/03/19 00:04:52;;;;;;;21.98;13.88;;;;;;;0.67;65.65;94328.81;4215667;28;20137;-70
2021/03/19 00:06:54;;;;;;;18.45;13.30;;;;;;;0.78;65.47;94331.47;4228989;28;20087;-71
2021/03/19 00:08:55;;;;;;;19.02;13.52;;;;;;;0.96;65.01;94333.66;4229555;28;20066;-70
2021/03/19 00:10:57;;;;;;;19.42;12.70;;;;;;;1.09;64.98;94323.28;4229485;28;20628;-71
2021/03/19 00:13:05;;;;;;;18.63;12.98;;;;;;;1.19;64.55;94322.50;4212454;28;20040;-71
2021/03/19 00:15:07;;;;;;;20.23;14.02;;;;;;;1.22;64.40;94327.44;4230613;28;20141;-82
2021/03/19 00:17:09;;;;;;;22.35;14.60;;;;;;;1.25;64.49;94320.41;4233976;28;20502;-82
2021/03/19 00:19:10;;;;;;;20.77;14.23;;;;;;;1.22;64.32;94319.69;4220738;28;20301;-83
2021/03/19 00:21:12;;;;;;;20.65;14.27;;;;;;;1.29;64.50;94321.81;4220878;28;20052;-82
2021/03/19 00:23:14;;;;;;;20.98;14.55;;;;;;;1.28;64.30;94317.59;4237733;28;20047;-83
2021/03/19 00:25:15;;;;;;;19.13;13.25;;;;;;;1.31;64.29;94320.78;4215126;28;20052;-84
2021/03/19 00:27:16;;;;;;;18.70;13.23;;;;;;;1.38;64.34;94321.16;4240124;28;20135;-80
2021/03/19 00:29:17;;;;;;;17.83;13.50;;;;;;;1.33;63.99;94333.56;4239359;28;20047;-83
2021/03/19 00:31:19;;;;;;;16.75;11.98;;;;;;;1.28;64.30;94333.09;4221574;28;20499;-84
2021/03/19 00:33:21;;;;;;;19.95;14.27;;;;;;;1.23;64.84;94329.09;4220118;28;20044;-83
2021/03/19 00:35:23;;;;;;;16.77;12.35;;;;;;;1.19;64.75;94332.81;4224058;28;20498;-83
2021/03/19 00:37:24;;;;;;;17.50;12.23;;;;;;;1.18;64.68;94333.78;4201346;28;20056;-83
2021/03/19 00:39:26;;;;;;;19.65;13.60;;;;;;;1.13;65.13;94333.25;4233471;28;20056;-71
2021/03/19 00:41:28;;;;;;;16.13;12.43;;;;;;;1.07;65.57;94320.81;4227731;28;20051;-69
2021/03/19 00:43:29;;;;;;;17.33;12.90;;;;;;;1.14;65.59;94327.19;4228944;28;20047;-71
2021/03/19 00:45:31;;;;;;;16.58;12.35;;;;;;;1.12;65.13;94321.31;4209027;28;20043;-72
2021/03/19 00:47:33;;;;;;;17.83;12.70;;;;;;;1.13;65.75;94315.19;4226297;28;20039;-69
2021/03/19 00:49:35;;;;;;;18.38;13.10;;;;;;;1.03;65.91;94314.22;4211539;28;20513;-71
2021/03/19 00:51:36;;;;;;;16.67;12.30;;;;;;;1.04;65.62;94318.44;4223248;28;20157;-70
2021/03/19 00:53:37;;;;;;;17.08;12.02;;;;;;;1.08;65.90;94313.91;4219341;27;20052;-70
2021/03/19 00:55:38;;;;;;;19.35;13.63;;;;;;;1.08;66.07;94317.31;4209502;28;20249;-70
2021/03/19 00:57:40;;;;;;;16.17;12.43;;;;;;;1.06;66.21;94323.50;4202125;28;20466;-70
2021/03/19 00:59:41;;;;;;;18.70;13.48;;;;;;;1.00;66.66;94325.59;4234849;27;20048;-71
2021/03/19 01:01:42;;;;;;;19.33;12.57;;;;;;;1.02;66.07;94317.75;4226446;28;20052;-71
2021/03/19 01:03:43;;;;;;;17.85;12.68;;;;;;;1.01;66.01;94321.25;4232542;28;20048;-70
2021/03/19 01:05:45;;;;;;;17.25;12.40;;;;;;;1.04;66.27;94323.63;4228573;28;20105;-70
2021/03/19 01:07:47;;;;;;;17.48;12.60;;;;;;;1.04;66.23;94320.22;4209523;28;20506;-69
2021/03/19 01:09:49;;;;;;;18.20;13.10;;;;;;;1.05;66.08;94322.66;4228201;28;20049;-71
2021/03/19 01:11:50;;;;;;;18.45;13.68;;;;;;;1.07;66.29;94314.81;4227621;28;20463;-70
2021/03/19 01:13:51;;;;;;;18.33;13.35;;;;;;;1.09;66.24;94318.13;4213298;28;20056;-83
2021/03/19 01:15:53;;;;;;;16.45;12.82;;;;;;;1.12;65.91;94311.00;4241343;27;20049;-85
2021/03/19 01:17:55;;;;;;;16.23;12.05;;;;;;;1.14;65.99;94306.53;4220840;28;20062;-82
2021/03/19 01:19:57;;;;;;;15.55;12.25;;;;;;;1.16;65.95;94307.25;4220268;28;20067;-82
2021/03/19 01:21:58;;;;;;;16.63;12.50;;;;;;;1.23;65.60;94305.03;4220739;28;20044;-83
2021/03/19 01:23:59;;;;;;;15.73;12.00;;;;;;;1.29;65.11;94296.84;4236460;28;20439;-81
2021/03/19 01:26:01;;;;;;;17.27;12.70;;;;;;;1.30;65.19;94297.69;4229747;27;20059;-83
2021/03/19 01:28:03;;;;;;;16.75;12.55;;;;;;;1.36;65.47;94304.97;4216536;28;20040;-84
2021/03/19 01:30:07;;;;;;;16.20;12.27;;;;;;;1.35;65.38;94304.13;4205931;28;20048;-82
2021/03/19 01:32:08;;;;;;;19.50;13.70;;;;;;;1.27;65.46;94308.22;4234173;28;20055;-82
2021/03/19 01:34:11;;;;;;;17.75;12.68;;;;;;;1.31;65.55;94307.03;4221849;28;20062;-81
2021/03/19 01:36:12;;;;;;;16.17;11.27;;;;;;;1.28;65.22;94307.28;4238312;28;20412;-83
2021/03/19 01:38:13;;;;;;;17.33;12.63;;;;;;;1.28;65.58;94300.34;4231614;28;20118;-82
2021/03/19 01:40:16;;;;;;;19.65;13.95;;;;;;;1.30;65.59;94300.25;4230702;28;20047;-82
2021/03/19 01:42:17;;;;;;;17.38;12.57;;;;;;;1.26;65.24;94304.00;4240232;28;20045;-82
2021/03/19 01:44:45;;;;;;;17.25;12.73;;;;;;;1.28;65.47;94302.94;4223504;28;20055;-82
2021/03/19 01:47:25;;;;;;;17.60;13.02;;;;;;;1.33;65.88;94300.00;4213444;28;20502;-83
2021/03/19 01:50:06;;;;;;;18.67;12.95;;;;;;;1.37;65.09;94301.44;4201336;28;20456;-84
2021/03/19 01:52:44;;;;;;;16.45;12.35;;;;;;;1.41;65.00;94303.69;4237721;28;20054;-84
2021/03/19 01:55:23;;;;;;;17.73;12.73;;;;;;;1.39;64.99;94302.97;4232186;28;20040;-84
2021/03/19 01:58:02;;;;;;;15.95;11.82;;;;;;;1.38;64.68;94297.94;4241507;28;20043;-81
2021/03/19 02:00:40;;;;;;;15.75;11.55;;;;;;;1.36;64.63;94294.66;4236730;28;20532;-82
2021/03/19 02:03:19;;;;;;;17.42;12.43;;;;;;;1.31;64.44;94296.72;4231870;28;20105;-82
2021/03/19 02:05:58;;;;;;;18.45;13.35;;;;;;;1.28;64.70;94299.53;4223766;28;20118;-84
2021/03/19 02:08:37;;;;;;;15.50;11.95;;;;;;;1.23;64.75;94295.53;4240472;28;20052;-82
2021/03/19 02:11:15;;;;;;;15.98;11.77;;;;;;;1.18;65.47;94291.63;4234853;28;20044;-84
2021/03/19 02:13:54;;;;;;;17.60;11.63;;;;;;;1.23;64.67;94295.53;4246490;28;20148;-83
2021/03/19 02:16:33;;;;;;;16.35;11.48;;;;;;;1.20;65.21;94293.16;4214577;28;20048;-84
2021/03/19 02:19:12;;;;;;;15.10;10.93;;;;;;;1.18;65.00;94292.47;4243154;28;20097;-83
2021/03/19 02:22:07;;;;;;;13.82;10.63;;;;;;;1.08;65.29;94291.50;4238822;28;20095;-82
2021/03/19 02:24:46;;;;;;;14.63;10.57;;;;;;;1.11;64.90;94286.09;4233128;28;20063;-83
2021/03/19 02:27:25;;;;;;;12.98;9.77;;;;;;;1.04;64.51;94287.50;4225761;28;20153;-82
2021/03/19 02:30:03;;;;;;;15.13;11.05;;;;;;;1.01;64.95;94290.28;4226068;28;20054;-82
2021/03/19 02:32:16;;;;;;;13.75;9.43;;;;;;;1.01;64.62;94292.88;4231070;28;20107;-81
2021/03/19 02:34:19;;;;;;;13.80;10.27;;;;;;;1.09;64.24;94285.41;4223227;28;20078;-82
2021/03/19 02:36:23;;;;;;;12.00;9.07;;;;;;;1.09;64.06;94289.75;4207522;28;20083;-82
2021/03/19 02:38:26;;;;;;;14.20;10.40;;;;;;;1.16;63.80;94284.03;4215079;28;20057;-82
2021/03/19 02:40:28;;;;;;;11.90;9.05;;;;;;;1.18;63.29;94289.06;4223714;28;20047;-82
2021/03/19 02:42:31;;;;;;;12.15;9.70;;;;;;;1.17;63.57;94280.50;4241747;28;20441;-80
2021/03/19 02:44:32;;;;;;;13.05;9.82;;;;;;;1.19;63.40;94278.63;4227162;28;20083;-82
2021/03/19 02:46:34;;;;;;;12.85;9.90;;;;;;;1.27;63.09;94284.97;4225828;28;20044;-83
2021/03/19 02:48:36;;;;;;;12.90;10.07;;;;;;;1.33;63.09;94281.94;4248431;27;20071;-83
2021/03/19 02:50:39;;;;;;;11.57;9.25;;;;;;;1.36;62.58;94279.97;4225400;28;20055;-83
2021/03/19 02:52:42;;;;;;;11.67;9.00;;;;;;;1.40;62.71;94283.16;4236725;28;20047;-83
2021/03/19 02:54:43;;;;;;;13.60;8.85;;;;;;;1.38;62.29;94279.88;4223666;28;20054;-81
2021/03/19 02:56:44;;;;;;;11.30;8.77;;;;;;;1.43;61.78;94282.91;4240117;28;20051;-84
2021/03/19 02:58:45;;;;;;;12.77;10.40;;;;;;;1.49;62.01;94279.06;4236462;28;20052;-84
2021/03/19 03:00:46;;;;;;;14.88;10.82;;;;;;;1.45;62.01;94273.31;4237694;28;20104;-83
2021/03/19 03:02:48;;;;;;;11.65;9.10;;;;;;;1.44;61.93;94287.13;4218127;28;20617;-82
2021/03/19 03:04:50;;;;;;;12.18;9.60;;;;;;;1.38;62.35;94277.28;4221115;28;20059;-81
2021/03/19 03:06:54;;;;;;;12.43;9.57;;;;;;;1.42;61.74;94278.72;4220735;28;20048;-83
2021/03/19 03:08:55;;;;;;;12.77;10.13;;;;;;;1.37;62.10;94276.44;4226134;28;20051;-83
2021/03/19 03:10:57;;;;;;;14.68;10.50;;;;;;;1.40;62.62;94278.00;4245824;28;20406;-82
2021/03/19 03:12:58;;;;;;;13.48;10.50;;;;;;;1.46;61.76;94274.13;4246043;28;20050;-82
2021/03/19 03:14:59;;;;;;;12.60;10.00;;;;;;;1.40;62.33;94276.22;4245986;28;20063;-82
2021/03/19 03:17:03;;;;;;;12.30;10.20;;;;;;;1.38;62.14;94275.53;4230888;28;20043;-84
2021/03/19 03:19:06;;;;;;;14.07;10.38;;;;;;;1.41;62.47;94270.13;4243209;28;20047;-83
2021/03/19 03:21:08;;;;;;;15.65;11.00;;;;;;;1.30;62.44;94280.44;4223445;28;20134;-82
2021/03/19 03:23:09;;;;;;;16.75;10.60;;;;;;;1.07;63.22;94278.72;4219165;28;20024;-84
2021/03/19 03:25:14;;;;;;;15.02;10.52;;;;;;;0.81;64.67;94278.84;4239144;28;20048;-83
2021/03/19 03:27:15;;;;;;;14.27;10.15;;;;;;;0.87;64.04;94275.81;4223320;28;20139;-84
2021/03/19 03:29:16;;;;;;;14.23;10.32;;;;;;;0.94;64.21;94281.34;4222888;28;20051;-82
2021/03/19 03:31:17;;;;;;;12.55;10.00;;;;;;;1.02;63.46;94272.13;4242428;28;20047;-84
2021/03/19 03:33:19;;;;;;;14.32;10.55;;;;;;;1.09;63.29;94271.69;4224778;28;20044;-81
2021/03/19 03:35:23;;;;;;;14.90;10.70;;;;;;;1.00;63.72;94278.34;4221892;28;20059;-83
2021/03/19 03:37:24;;;;;;;15.23;10.35;;;;;;;0.96;63.85;94271.75;4227561;28;20601;-82
2021/03/19 03:39:30;;;;;;;15.30;10.63;;;;;;;1.08;63.63;94273.44;4247753;28;20055;-81
2021/03/19 03:41:31;;;;;;;14.60;11.27;;;;;;;1.16;63.33;94271.13;4250588;28;20032;-83
2021/03/19 03:43:34;;;;;;;14.38;10.27;;;;;;;1.22;63.20;94280.16;4240052;28;20055;-83
2021/03/19 03:45:36;;;;;;;14.70;11.02;;;;;;;1.25;62.63;94272.22;4211965;28;20135;-83
2021/03/19 03:47:38;;;;;;;14.18;10.60;;;;;;;1.28;63.07;94276.31;4229837;28;20051;-81
2021/03/19 03:49:39;;;;;;;14.85;10.77;;;;;;;1.19;63.20;94272.66;4208758;28;20071;-84
2021/03/19 03:51:41;;;;;;;17.00;11.00;;;;;;;1.21;63.24;94274.19;4245901;28;20126;-83
2021/03/19 03:53:42;;;;;;;14.50;10.82;;;;;;;1.03;64.22;94272.94;4226679;28;20060;-82
2021/03/19 03:55:43;;;;;;;14.20;10.90;;;;;;;1.06;63.64;94277.91;4247215;28;20056;-82
2021/03/19 03:57:45;;;;;;;12.80;10.23;;;;;;;1.11;63.61;94275.78;4230050;28;20044;-81
2021/03/19 03:59:46;;;;;;;16.15;11.13;;;;;;;1.14;63.55;94277.31;4232178;28;20125;-82
2021/03/19 04:01:49;;;;;;;14.38;10.68;;;;;;;1.19;63.55;94281.22;4249656;28;20110;-82
2021/03/19 04:03:51;;;;;;;15.95;11.13;;;;;;;1.21;63.23;94276.75;4237411;28;20040;-81
2021/03/19 04:05:52;;;;;;;16.20;10.35;;;;;;;1.12;63.27;94281.75;4225853;28;20440;-83
2021/03/19 04:07:53;;;;;;;14.13;10.00;;;;;;;1.17;63.60;94279.69;4245469;28;20054;-82
2021/03/19 04:09:54;;;;;;;12.98;10.07;;;;;;;1.16;63.71;94284.03;4246198;28;20061;-80
2021/03/19 04:11:56;;;;;;;16.33;10.85;;;;;;;1.08;63.64;94278.59;4226495;28;20116;-83
2021/03/19 04:13:57;;;;;;;18.83;11.25;;;;;;;0.61;65.47;94288.81;4244328;28;20139;-83
2021/03/19 04:15:59;;;;;;;15.55;11.18;;;;;;;0.50;65.99;94300.84;4226475;28;20141;-83
2021/03/19 04:18:04;;;;;;;13.68;10.60;;;;;;;0.45;66.08;94298.56;4209826;28;20048;-82
2021/03/19 04:20:07;;;;;;;16.20;10.88;;;;;;;0.28;66.86;94304.91;4247171;28;20043;-83
2021/03/19 04:22:08;;;;;;;16.03;10.87;;;;;;;0.40;66.21;94298.88;4227209;28;20048;-83
2021/03/19 04:24:09;;;;;;;16.98;11.80;;;;;;;0.50;65.75;94303.41;4245296;28;20146;-83
2021/03/19 04:26:29;;;;;;;13.82;9.93;;;;;;;0.58;65.42;94298.50;4251265;27;20090;-82
2021/03/19 04:28:33;;;;;;;14.13;10.30;;;;;;;0.65;65.51;94293.78;4241118;28;20523;-82
2021/03/19 04:30:41;;;;;;;15.55;10.90;;;;;;;0.75;65.05;94300.75;4244353;27;20043;-83
2021/03/19 04:32:42;;;;;;;14.98;10.75;;;;;;;0.89;64.83;94292.00;4229616;28;20559;-83
2021/03/19 04:34:44;;;;;;;18.33;11.85;;;;;;;0.92;65.37;94304.66;4252947;27;20082;-84
2021/03/19 04:36:49;;;;;;;16.17;11.25;;;;;;;0.98;64.26;94300.84;4242983;28;20054;-82
2021/03/19 04:38:52;;;;;;;16.48;11.40;;;;;;;1.04;63.84;94300.41;4225646;28;20054;-83
2021/03/19 04:40:53;;;;;;;14.10;10.15;;;;;;;1.10;63.59;94306.84;4223840;28;20048;-83
2021/03/19 04:42:55;;;;;;;16.90;11.43;;;;;;;1.16;64.00;94302.09;4245197;28;20044;-84
2021/03/19 04:44:56;;;;;;;15.75;11.05;;;;;;;1.12;63.92;94303.25;4244764;28;20479;-84
2021/03/19 04:46:58;;;;;;;14.68;11.35;;;;;;;1.17;63.95;94302.91;4206536;28;20512;-84
2021/03/19 04:48:59;;;;;;;14.73;11.07;;;;;;;1.19;63.36;94303.63;4235192;28;20071;-83
2021/03/19 04:51:00;;;;;;;14.27;10.80;;;;;;;1.26;63.69;94306.56;4219923;28;20044;-84
2021/03/19 04:53:17;;;;;;;15.15;11.45;;;;;;;1.26;62.76;94309.97;4237551;28;20035;-84
2021/03/19 04:55:18;;;;;;;15.07;10.35;;;;;;;1.24;62.99;94298.94;4239607;28;20642;-83
2021/03/19 04:57:20;;;;;;;15.73;11.85;;;;;;;1.29;63.18;94308.91;4235807;28;20115;-80
2021/03/19 04:59:22;;;;;;;13.73;10.52;;;;;;;1.26;62.69;94304.00;4267256;27;20066;-83
2021/03/19 05:01:24;;;;;;;17.40;11.85;;;;;;;1.25;62.61;94302.34;4244727;27;20074;-83
2021/03/19 05:03:25;;;;;;;15.88;11.32;;;;;;;1.23;62.69;94303.28;4207554;28;20055;-84
2021/03/19 05:05:33;;;;;;;14.20;11.13;;;;;;;1.21;62.76;94307.72;4227559;28;20048;-81
2021/03/19 05:07:34;;;;;;;15.15;11.32;;;;;;;1.25;62.66;94300.59;4230114;28;20048;-85
2021/03/19 05:09:35;;;;;;;16.75;11.73;;;;;;;1.27;62.66;94305.63;4237756;28;20132;-70
2021/03/19 05:11:37;;;;;;;15.23;11.00;;;;;;;1.32;61.89;94308.72;4236887;27;20525;-70
2021/03/19 05:13:40;;;;;;;15.07;10.90;;;;;;;1.36;61.71;94305.78;4228199;27;20087;-70
2021/03/19 05:15:42;;;;;;;15.32;11.00;;;;;;;1.38;61.77;94310.84;4217887;28;20087;-70
2021/03/19 05:17:43;;;;;;;14.05;10.65;;;;;;;1.42;61.96;94312.25;4228617;28;20047;-70
2021/03/19 05:19:45;;;;;;;15.68;11.63;;;;;;;1.19;61.88;94314.75;4228664;28;20337;-71
2021/03/19 05:21:46;;;;;;;16.33;11.25;;;;;;;1.08;62.53;94314.72;4228653;28;20935;-71
2021/03/19 05:23:48;;;;;;;18.13;12.50;;;;;;;1.21;62.85;94310.31;4218215;28;20105;-71
2021/03/19 05:25:49;;;;;;;14.05;11.13;;;;;;;1.31;62.38;94320.78;4226990;28;20039;-71
2021/03/19 05:27:53;;;;;;;17.80;11.85;;;;;;;1.42;61.68;94314.84;4228897;28;20059;-71
2021/03/19 05:29:55;;;;;;;14.93;11.50;;;;;;;1.51;61.32;94321.09;4228499;28;20059;-71
2021/03/19 05:31:56;;;;;;;16.83;11.77;;;;;;;1.50;60.52;94317.66;4236803;27;20437;-70
2021/03/19 05:33:58;;;;;;;15.02;11.25;;;;;;;1.49;60.60;94331.50;4209161;28;20044;-71
2021/03/19 05:35:59;;;;;;;14.38;11.40;;;;;;;1.50;60.06;94332.34;4228287;28;20062;-70
2021/03/19 05:38:01;;;;;;;15.95;10.90;;;;;;;1.49;60.64;94330.69;4233473;28;20064;-84
2021/03/19 05:40:07;;;;;;;13.48;10.50;;;;;;;1.54;60.53;94326.00;4230379;28;20051;-85
2021/03/19 05:42:26;;;;;;;16.30;10.32;;;;;;;1.52;59.56;94331.28;4222638;28;20144;-85
2021/03/19 05:44:27;;;;;;;16.35;11.43;;;;;;;1.50;59.86;94338.31;4222743;28;20074;-84
2021/03/19 05:46:35;;;;;;;16.30;10.82;;;;;;;1.50;59.80;94334.91;4239836;28;20498;-84
2021/03/19 05:48:39;;;;;;;15.93;11.25;;;;;;;1.40;59.36;94342.53;4218324;28;20120;-84
2021/03/19 05:50:40;;;;;;;13.77;10.70;;;;;;;1.49;59.53;94341.84;4215199;28;20128;-83
2021/03/19 05:52:42;;;;;;;13.63;10.40;;;;;;;1.48;59.33;94340.19;4236615;28;20027;-85
2021/03/19 05:54:44;;;;;;;14.98;10.10;;;;;;;1.50;58.89;94333.16;4218259;28;20047;-85
2021/03/19 05:56:47;;;;;;;14.45;10.30;;;;;;;1.52;58.96;94325.31;4220669;28;20194;-84
2021/03/19 05:58:48;;;;;;;14.82;10.48;;;;;;;1.51;58.42;94334.81;4219869;28;20134;-84
2021/03/19 06:00:57;;;;;;;17.15;11.75;;;;;;;1.55;58.72;94345.72;4236823;28;20058;-84
2021/03/19 06:02:59;;;;;;;17.70;11.18;;;;;;;1.54;58.26;94349.25;4237127;28;20112;-86
2021/03/19 06:05:28;;;;;;;14.73;10.40;;;;;;;1.59;58.05;94340.22;4232561;28;20056;-83
2021/03/19 06:07:44;;;;;;;15.05;11.73;;;;;;;1.64;58.04;94345.06;4212407;28;20052;-83
2021/03/19 06:09:45;;;;;;;15.15;10.65;;;;;;;1.63;57.20;94338.22;4230816;28;20059;-84
2021/03/19 06:11:51;;;;;;;16.27;10.77;;;;;;;1.74;57.31;94345.19;4236505;28;20051;-86
2021/03/19 06:14:00;;;;;;;19.13;10.95;;;;;;;1.73;57.55;94341.78;4206559;28;20075;-84
2021/03/19 06:16:35;;;;;;;14.07;11.07;;;;;;;1.77;57.21;94340.63;4223060;28;20058;-85
2021/03/19 06:18:40;;;;;;;15.85;11.15;;;;;;;1.83;56.62;94345.31;4238894;28;20043;-84
2021/03/19 06:20:50;;;;;;;16.08;10.15;;;;;;;1.91;56.78;94342.16;4221725;28;20051;-86
2021/03/19 06:22:54;;;;;;;14.45;10.80;;;;;;;1.94;56.53;94344.53;4219987;28;20048;-85
2021/03/19 06:24:56;;;;;;;;;;;;;;;2.03;56.42;94351.56;4236929;28;20055;-84
2021/03/19 06:27:23;;;;;;;14.27;9.75;;;;;;;2.10;55.86;94351.09;4236409;28;19920;-85
2021/03/19 06:29:34;;;;;;;13.57;10.02;;;;;;;2.11;55.55;94353.59;4221741;28;20076;-85
2021/03/19 06:31:35;;;;;;;16.02;10.63;;;;;;;2.18;55.41;94352.16;4221254;28;20052;-85
2021/03/19 06:33:37;;;;;;;12.93;9.88;;;;;;;2.20;54.80;94352.06;4219551;28;20118;-86
2021/03/19 06:35:47;;;;;;;17.55;10.82;;;;;;;2.26;54.74;94356.78;4231837;28;20051;-86
2021/03/19 06:37:50;;;;;;;19.33;11.35;;;;;;;2.29;55.31;94360.88;4221193;28;20047;-85
2021/03/19 06:39:55;;;;;;;19.48;11.75;;;;;;;2.07;55.80;94354.75;4217259;28;20059;-85
2021/03/19 06:42:01;;;;;;;10.38;7.97;;;;;;;2.10;55.36;94366.63;4216817;28;20151;-85
2021/03/19 06:44:21;;;;;;;13.75;9.65;;;;;;;2.20;55.51;94362.41;4235654;28;20051;-84
2021/03/19 06:46:34;;;;;;;11.73;8.93;;;;;;;2.23;54.34;94362.16;4222229;28;20059;-84
2021/03/19 06:48:41;;;;;;;10.73;8.30;;;;;;;2.09;55.06;94370.97;4252668;27;20051;-87
2021/03/19 06:50:42;;;;;;;15.52;8.48;;;;;;;2.13;54.58;94366.38;4238343;27;20060;-85
2021/03/19 06:52:44;;;;;;;10.43;7.93;;;;;;;2.11;54.63;94370.81;4234094;28;20054;-85
2021/03/19 06:54:59;;;;;;;15.50;8.48;;;;;;;1.90;55.33;94371.53;4236205;28;20438;-85
2021/03/19 06:57:07;;;;;;;11.43;8.10;;;;;;;1.17;57.32;94375.97;4229033;28;20047;-84
2021/03/19 06:59:20;;;;;;;14.85;10.75;;;;;;;0.95;58.35;94376.69;4205117;28;20128;-84
2021/03/19 07:01:24;;;;;;;13.52;8.68;;;;;;;0.90;59.11;94377.94;4232500;28;20047;-83
2021/03/19 07:03:47;;;;;;;11.10;8.35;;;;;;;1.30;58.87;94372.50;4221789;28;20518;-85
2021/03/19 07:06:19;;;;;;;11.88;8.85;;;;;;;1.75;57.13;94368.31;4207615;28;20048;-86
2021/03/19 07:08:20;;;;;;;14.48;9.63;;;;;;;2.03;56.40;94363.66;4241991;28;20036;-85
2021/03/19 07:10:52;;;;;;;13.73;9.55;;;;;;;1.55;56.79;94368.94;4223583;28;20043;-83
2021/03/19 07:13:21;;;;;;;14.98;10.15;;;;;;;1.19;58.78;94376.69;4222276;28;20048;-84
2021/03/19 07:15:40;;;;;;;13.57;10.10;;;;;;;0.99;59.71;94382.44;4250612;28;20043;-84
2021/03/19 07:17:57;;;;;;;13.75;10.43;;;;;;;1.16;59.13;94376.91;4243253;28;20070;-85
2021/03/19 07:20:20;;;;;;;14.35;10.68;;;;;;;1.53;58.35;94366.50;4238015;28;20141;-85
2021/03/19 07:22:43;;;;;;;18.02;11.05;;;;;;;1.84;57.76;94374.56;4243504;28;20048;-84
2021/03/19 07:24:52;;;;;;;17.85;11.02;;;;;;;1.81;57.89;94374.78;4251314;28;20043;-84
2021/03/19 07:27:01;;;;;;;13.82;10.15;;;;;;;1.53;58.18;94383.75;4243919;28;20035;-84
2021/03/19 07:29:14;;;;;;;20.95;12.63;;;;;;;1.90;57.74;94371.53;4239624;28;20166;-86
2021/03/19 07:31:43;;;;;;;18.30;11.25;;;;;;;2.15;57.18;94370.50;4226779;28;20111;-83
2021/03/19 07:33:59;;;;;;;15.55;10.73;;;;;;;2.36;56.47;94377.56;4243439;28;20048;-83
2021/03/19 07:36:16;;;;;;;16.35;10.20;;;;;;;2.69;55.51;94374.16;4239425;28;20071;-86
2021/03/19 07:38:54;;;;;;;15.43;10.45;;;;;;;2.71;55.28;94376.59;4244103;28;20047;-85
2021/03/19 07:41:27;;;;;;;14.98;10.13;;;;;;;2.61;55.51;94374.72;4236284;28;20056;-87
2021/03/19 07:44:04;;;;;;;12.65;8.73;;;;;;;2.83;54.86;94366.09;4230479;28;20048;-84
2021/03/19 07:46:30;;;;;;;13.70;9.65;;;;;;;2.60;54.55;94367.94;4223027;28;20044;-86
2021/03/19 07:48:37;;;;;;;13.88;8.68;;;;;;;1.77;56.26;94374.19;4239077;28;20048;-86
2021/03/19 07:50:47;;;;;;;16.25;10.65;;;;;;;1.68;57.77;94372.28;4225911;28;20077;-86
2021/03/19 07:53:06;;;;;;;15.63;10.32;;;;;;;1.54;58.12;94381.03;4249113;28;20073;-83
2021/03/19 07:55:16;;;;;;;17.05;10.68;;;;;;;1.69;58.06;94371.34;4245690;28;20111;-84
2021/03/19 07:57:32;;;;;;;16.00;10.10;;;;;;;2.08;57.91;94363.31;4226232;28;20060;-88
2021/03/19 07:59:48;;;;;;;13.82;9.25;;;;;;;2.49;56.48;94361.94;4219535;28;20101;-83
2021/03/19 08:01:49;;;;;;;15.80;11.05;;;;;;;2.51;56.10;94365.22;4238998;28;20055;-71
2021/03/19 08:04:18;;;;;;;15.15;10.38;;;;;;;2.45;56.79;94371.66;4208080;28;20048;-71
2021/03/19 08:06:22;;;;;;;13.82;9.48;;;;;;;2.93;55.06;94370.59;4226331;28;20046;-72
2021/03/19 08:08:54;;;;;;;16.75;10.32;;;;;;;3.23;55.21;94373.31;4208779;28;20109;-72
2021/03/19 08:11:33;;;;;;;17.33;10.60;;;;;;;3.61;53.69;94369.38;4226671;28;20048;-73
2021/03/19 08:13:53;;;;;;;13.23;9.77;;;;;;;3.74;52.58;94371.81;4229456;28;20056;-73
2021/03/19 08:16:18;;;;;;;12.82;9.95;;;;;;;3.96;51.91;94367.44;4229129;28;20418;-72
2021/03/19 08:18:26;;;;;;;13.50;9.90;;;;;;;3.49;52.82;94371.22;4212859;28;20044;-72
2021/03/19 08:20:36;;;;;;;16.13;11.38;;;;;;;2.67;55.90;94368.28;4210006;28;20608;-72
2021/03/19 08:22:43;;;;;;;19.38;11.07;;;;;;;2.32;56.82;94373.56;4215934;28;20051;-71
2021/03/19 08:25:09;;;;;;;17.35;10.63;;;;;;;2.40;57.36;94369.44;4229008;28;20047;-71
2021/03/19 08:27:11;;;;;;;16.20;10.88;;;;;;;2.70;56.71;94367.19;4232981;27;20079;-71
2021/03/19 08:29:36;;;;;;;17.10;11.20;;;;;;;2.74;56.44;94369.44;4231849;27;20049;-71
2021/03/19 08:31:44;;;;;;;14.70;10.80;;;;;;;3.07;55.49;94370.28;4233825;27;20230;-72
2021/03/19 08:34:23;;;;;;;16.77;10.82;;;;;;;3.13;55.12;94369.81;4227353;28;20105;-73
2021/03/19 08:36:36;;;;;;;21.63;12.70;;;;;;;2.89;54.58;94358.81;4227442;28;20055;-71
2021/03/19 08:38:46;;;;;;;14.93;10.65;;;;;;;3.11;54.22;94352.78;4228111;28;20051;-72
2021/03/19 08:40:58;;;;;;;15.75;10.52;;;;;;;2.44;55.43;94355.34;4209239;28;20604;-71
2021/03/19 08:43:00;;;;;;;12.98;9.63;;;;;;;2.99;54.66;94344.19;4210398;28;20050;-72
2021/03/19 08:45:23;;;;;;;15.25;9.60;;;;;;;3.55;53.67;94356.13;4211465;28;20611;-75
2021/03/19 08:47:34;;;;;;;15.90;11.25;;;;;;;3.77;53.17;94345.66;4210620;28;20078;-72
2021/03/19 08:49:46;;;;;;;19.45;12.80;;;;;;;3.80;53.16;94355.75;4207119;28;20047;-72
2021/03/19 08:51:47;;;;;;;16.25;10.25;;;;;;;3.79;52.76;94351.53;4185572;28;20128;-72
2021/03/19 08:54:17;;;;;;;16.17;11.50;;;;;;;3.10;54.35;94351.94;4209613;28;20052;-71
2021/03/19 08:56:31;;;;;;;17.42;11.18;;;;;;;3.14;54.32;94347.34;4226055;28;20047;-72
2021/03/19 08:58:43;;;;;;;15.70;10.32;;;;;;;3.00;53.92;94357.03;4210117;28;20285;-73
2021/03/19 09:00:48;;;;;;;15.27;9.85;;;;;;;2.96;53.59;94354.81;4199419;28;20067;-72
2021/03/19 09:02:54;;;;;;;17.15;10.73;;;;;;;3.43;53.02;94353.59;4204362;28;20044;-72
2021/03/19 09:04:55;;;;;;;16.33;10.32;;;;;;;3.74;52.83;94350.25;4240716;27;20055;-72
2021/03/19 09:07:40;;;;;;;17.67;11.90;;;;;;;3.83;52.28;94346.91;4229798;27;20780;-72
2021/03/19 09:09:41;;;;;;;15.55;10.63;;;;;;;3.18;53.27;94359.09;4208698;28;20245;-71
2021/03/19 09:11:42;;;;;;;11.70;8.75;;;;;;;3.49;51.90;94352.28;4228411;28;20062;-74
2021/03/19 09:14:03;;;;;;;14.40;9.70;;;;;;;3.65;51.82;94337.09;4227978;28;20079;-70
2021/03/19 09:16:40;;;;;;;16.73;11.57;;;;;;;3.38;53.38;94334.22;4210415;28;20048;-72
2021/03/19 09:18:48;;;;;;;16.02;10.95;;;;;;;3.05;54.73;94351.47;4227713;28;20055;-72
2021/03/19 09:21:09;;;;;;;16.05;11.98;;;;;;;3.27;53.82;94342.84;4210797;28;20074;-72
2021/03/19 09:23:10;;;;;;;16.50;12.82;;;;;;;3.47;53.28;94338.63;4220923;28;20039;-72
2021/03/19 09:25:12;;;;;;;16.73;10.80;;;;;;;3.28;53.91;94349.66;4226286;28;20145;-73
2021/03/19 09:27:29;;;;;;;14.63;10.40;;;;;;;3.31;52.72;94341.63;4209839;28;20051;-73
2021/03/19 09:29:33;;;;;;;13.13;9.55;;;;;;;3.60;53.12;94328.91;4215175;28;20051;-86
2021/03/19 09:31:38;;;;;;;15.02;10.07;;;;;;;4.05;52.56;94344.19;4234893;28;20108;-86
2021/03/19 09:33:43;;;;;;;15.77;10.88;;;;;;;4.33;52.50;94344.47;4202240;28;20055;-87
2021/03/19 09:35:47;;;;;;;12.27;9.55;;;;;;;4.23;51.21;94341.00;4237453;28;20119;-85
2021/03/19 09:37:51;;;;;;;13.25;9.90;;;;;;;3.89;51.45;94349.00;4237247;28;20078;-89
2021/03/19 09:40:10;;;;;;;13.98;10.52;;;;;;;3.75;52.37;94334.59;4236775;28;20112;-88
2021/03/19 09:42:18;;;;;;;15.07;11.32;;;;;;;4.01;52.38;94342.78;4236319;28;20498;-86
2021/03/19 09:44:28;;;;;;;18.58;12.30;;;;;;;4.11;52.38;94340.28;4235388;28;20073;-86
2021/03/19 09:46:31;;;;;;;21.90;13.65;;;;;;;4.25;51.81;94337.31;4215963;28;20099;-85
2021/03/19 09:48:34;;;;;;;17.10;11.97;;;;;;;4.60;51.75;94341.28;4232945;28;20044;-86
2021/03/19 09:50:36;;;;;;;16.10;11.10;;;;;;;4.59;51.28;94341.44;4216067;28;20097;-85
2021/03/19 09:52:38;;;;;;;12.27;10.13;;;;;;;4.19;50.83;94347.38;4233517;28;20409;-86
2021/03/19 09:54:40;;;;;;;14.18;9.82;;;;;;;3.72;51.29;94355.56;4201227;28;20048;-88
2021/03/19 09:56:41;;;;;;;12.23;9.40;;;;;;;3.72;51.81;94339.19;4234021;28;20067;-86
2021/03/19 09:58:46;;;;;;;11.57;8.73;;;;;;;4.14;50.67;94337.41;4234302;28;20057;-86
2021/03/19 10:01:03;;;;;;;13.48;8.98;;;;;;;4.56;50.51;94328.69;4233381;28;20051;-86